createdAt,value
2018-11-26T20:34:26.417Z,23.11
2018-11-26T20:58:20.635Z,5.36
2018-11-26T21:00:49.702Z,3.38
2018-11-26T21:03:18.703Z,2.61
2018-11-26T21:05:47.726Z,2.09
2018-11-26T21:08:16.886Z,1.74
2018-11-26T21:10:45.901Z,2.18
2018-11-26T21:13:17.032Z,2.54
2018-11-26T21:15:45.111Z,2.73
2018-11-26T21:18:15.032Z,2.94
2018-11-26T21:20:46.998Z,3.18
2018-11-26T21:23:18.011Z,3.14
2018-11-26T21:25:51.455Z,3.13
2018-11-26T21:28:20.594Z,3.16
2018-11-26T21:30:52.275Z,3.26
2018-11-26T21:33:19.791Z,3.29
2018-11-26T21:35:48.985Z,3.26
2018-11-26T21:38:18.652Z,3.29
2018-11-26T21:40:47.405Z,3.37
2018-11-26T21:43:16.927Z,3.29
2018-11-26T21:45:49.581Z,3.25
2018-11-26T21:48:18.698Z,3.25
2018-11-26T21:50:48.479Z,3.24
2018-11-26T21:53:17.511Z,3.27
2018-11-26T21:55:46.563Z,3.25
2018-11-26T21:58:15.598Z,3.29
2018-11-26T22:00:44.858Z,3.31
2018-11-26T22:03:14.704Z,3.32
2018-11-26T22:05:44.494Z,3.32
2018-11-26T22:08:13.596Z,3.39
2018-11-26T22:10:43.619Z,3.44
2018-11-26T22:13:14.127Z,3.43
2018-11-26T22:15:43.151Z,3.37
2018-11-26T22:18:12.187Z,3.39
2018-11-26T22:20:41.256Z,3.36
2018-11-26T22:23:10.268Z,3.19
2018-11-26T22:25:39.311Z,3.12
2018-11-26T22:28:09.978Z,3.19
2018-11-26T22:30:39.717Z,3.21
2018-11-26T22:33:09.106Z,3.23
2018-11-26T22:35:37.983Z,3.15
2018-11-26T22:38:07.146Z,3.07
2018-11-26T22:40:36.176Z,3.04
2018-11-26T22:43:05.864Z,3.09
2018-11-26T22:45:35.148Z,3.17
2018-11-26T22:48:07.672Z,3.03
2018-11-26T22:50:37.755Z,2.97
2018-11-26T22:53:08.087Z,3.02
2018-11-26T22:55:37.257Z,2.98
2018-11-26T22:58:09.644Z,2.97
2018-11-26T23:00:49.209Z,3.08
2018-11-26T23:03:19.518Z,3.00
2018-11-26T23:05:48.533Z,2.96
2018-11-26T23:08:17.543Z,3.01
2018-11-26T23:10:46.583Z,3.05
2018-11-26T23:13:15.561Z,2.95
2018-11-26T23:15:44.577Z,2.99
2018-11-26T23:18:13.603Z,2.93
2018-11-26T23:20:42.612Z,3.07
2018-11-26T23:23:11.599Z,3.04
2018-11-26T23:25:40.581Z,2.98
2018-11-26T23:28:09.568Z,2.87
2018-11-26T23:30:38.692Z,2.89
2018-11-26T23:33:08.115Z,2.84
2018-11-26T23:35:37.123Z,2.92
2018-11-26T23:38:06.342Z,2.83
2018-11-26T23:40:35.664Z,2.77
2018-11-26T23:43:04.659Z,2.82
2018-11-26T23:45:33.639Z,2.74
2018-11-26T23:48:02.606Z,2.72
2018-11-26T23:50:31.613Z,2.74
2018-11-26T23:53:00.588Z,2.64
2018-11-26T23:55:29.601Z,2.67
2018-11-26T23:57:58.570Z,2.71
